createdAt,value
2023-01-22T00:01:40.195Z,11.35
2023-01-22T00:04:07.757Z,10.55
2023-01-22T00:06:35.298Z,10.07
2023-01-22T00:09:04.657Z,10.85
2023-01-22T00:11:32.298Z,10.90
2023-01-22T00:13:59.992Z,10.88
2023-01-22T00:16:27.466Z,10.95
2023-01-22T00:18:54.999Z,10.30
2023-01-22T00:21:22.735Z,9.02
2023-01-22T00:23:50.234Z,10.40
2023-01-22T00:26:20.839Z,11.82
2023-01-22T00:28:48.336Z,10.52
2023-01-22T00:31:17.407Z,10.40
2023-01-22T00:36:20.079Z,10.73
2023-01-22T00:38:48.145Z,10.90
2023-01-22T00:41:17.147Z,10.63
2023-01-22T00:43:46.295Z,10.05
2023-01-22T00:46:15.514Z,11.30
2023-01-22T00:48:45.173Z,10.13
2023-01-22T00:51:14.828Z,11.13
2023-01-22T00:53:43.719Z,10.52
2023-01-22T00:56:12.368Z,10.77
2023-01-22T00:58:39.883Z,10.68
2023-01-22T01:01:09.351Z,9.65
2023-01-22T01:03:37.662Z,10.48
2023-01-22T01:06:08.414Z,10.80
2023-01-22T01:08:37.880Z,10.05
2023-01-22T01:11:08.082Z,10.55
2023-01-22T01:13:39.019Z,11.38
2023-01-22T01:16:10.228Z,10.98
2023-01-22T01:18:38.199Z,10.85
2023-01-22T01:21:07.496Z,10.27
2023-01-22T01:23:36.284Z,10.63
2023-01-22T01:26:06.448Z,10.60
2023-01-22T01:28:35.842Z,11.35
2023-01-22T01:31:05.083Z,10.57
2023-01-22T01:33:34.115Z,11.00
2023-01-22T01:36:02.990Z,11.57
2023-01-22T01:38:30.535Z,11.20
2023-01-22T01:40:58.242Z,11.82
2023-01-22T01:43:26.319Z,11.57
2023-01-22T01:45:54.817Z,12.45
2023-01-22T01:48:30.928Z,12.45
2023-01-22T01:51:05.917Z,12.55
2023-01-22T01:53:34.297Z,13.13
2023-01-22T01:56:04.381Z,13.25
2023-01-22T01:58:34.962Z,12.57
2023-01-22T02:01:09.049Z,12.70
2023-01-22T02:03:36.700Z,12.68
2023-01-22T02:06:06.066Z,11.48
2023-01-22T02:08:33.802Z,12.65
2023-01-22T02:11:01.493Z,13.02
2023-01-22T02:13:33.228Z,14.02
2023-01-22T02:16:00.888Z,13.63
2023-01-22T02:18:28.563Z,13.65
2023-01-22T02:20:59.543Z,13.23
2023-01-22T02:23:27.979Z,13.35
2023-01-22T02:25:55.954Z,11.82
2023-01-22T02:28:23.485Z,12.85
2023-01-22T02:30:51.232Z,13.40
2023-01-22T02:33:18.771Z,12.18
2023-01-22T02:35:46.289Z,13.55
2023-01-22T02:38:15.136Z,13.45
2023-01-22T02:40:49.117Z,14.15
2023-01-22T02:43:17.340Z,13.45
2023-01-22T02:45:44.989Z,13.02
2023-01-22T02:48:12.556Z,12.80
2023-01-22T02:50:40.136Z,12.77
2023-01-22T02:53:07.666Z,13.30
2023-01-22T02:55:36.759Z,13.95
2023-01-22T02:58:04.363Z,13.13
2023-01-22T03:00:32.181Z,13.25
2023-01-22T03:02:59.727Z,13.73
2023-01-22T03:05:27.295Z,13.90
2023-01-22T03:07:54.786Z,13.45
2023-01-22T03:10:22.369Z,13.88
2023-01-22T03:13:08.979Z,14.18
2023-01-22T03:15:56.899Z,13.27
2023-01-22T03:18:42.047Z,13.18
2023-01-22T03:21:15.646Z,12.57
2023-01-22T03:23:43.560Z,13.00
2023-01-22T03:26:12.031Z,13.65
2023-01-22T03:28:40.920Z,13.70
2023-01-22T03:31:09.507Z,14.40
2023-01-22T03:33:37.426Z,14.00
2023-01-22T03:36:07.580Z,14.88
2023-01-22T03:38:35.426Z,13.05
2023-01-22T03:41:04.781Z,11.98
2023-01-22T03:43:32.748Z,13.82
2023-01-22T03:46:06.989Z,13.15
2023-01-22T03:48:34.547Z,12.40
2023-01-22T03:51:06.993Z,12.60
2023-01-22T03:53:35.113Z,12.48
2023-01-22T03:56:04.563Z,11.82
2023-01-22T03:58:32.974Z,12.85
2023-01-22T04:01:02.528Z,13.57
2023-01-22T04:03:31.907Z,13.82
2023-01-22T04:06:01.078Z,15.80
2023-01-22T04:08:30.089Z,14.35
2023-01-22T04:10:58.754Z,14.57
2023-01-22T04:13:27.341Z,15.52
2023-01-22T04:15:54.996Z,14.48
2023-01-22T04:18:22.598Z,14.07
2023-01-22T04:20:52.256Z,15.25
2023-01-22T04:23:20.328Z,14.38
2023-01-22T04:25:48.249Z,14.93
2023-01-22T04:28:17.457Z,15.70
2023-01-22T04:30:46.995Z,15.18
2023-01-22T04:33:14.729Z,14.27
2023-01-22T04:35:42.469Z,15.45
2023-01-22T04:38:14.766Z,14.98
2023-01-22T04:40:42.279Z,15.73
2023-01-22T04:43:11.429Z,15.30
2023-01-22T04:45:39.267Z,15.48
2023-01-22T04:48:08.383Z,15.45
2023-01-22T04:50:36.275Z,15.93
2023-01-22T04:53:05.039Z,15.43
2023-01-22T04:55:34.145Z,16.42
2023-01-22T04:58:02.323Z,15.77
2023-01-22T05:00:31.573Z,16.63
2023-01-22T05:02:59.940Z,14.68
2023-01-22T05:05:28.509Z,16.05
2023-01-22T05:07:56.140Z,15.80
2023-01-22T05:10:24.099Z,16.20
2023-01-22T05:12:53.274Z,18.63
2023-01-22T05:15:25.208Z,15.73
2023-01-22T05:17:53.415Z,17.80
2023-01-22T05:20:21.256Z,15.75
2023-01-22T05:22:49.371Z,15.98
2023-01-22T05:25:17.050Z,14.00
2023-01-22T05:27:44.940Z,17.02
2023-01-22T05:30:14.576Z,16.98
2023-01-22T05:32:42.171Z,14.95
2023-01-22T05:35:10.425Z,15.15
2023-01-22T05:37:37.934Z,16.20
2023-01-22T05:40:06.766Z,15.88
2023-01-22T05:42:36.462Z,14.73
2023-01-22T05:45:04.234Z,16.20
2023-01-22T05:47:33.091Z,16.20
2023-01-22T05:50:00.597Z,17.45
2023-01-22T05:52:28.229Z,17.65
2023-01-22T05:54:55.704Z,16.83
2023-01-22T05:57:23.228Z,16.77
2023-01-22T05:59:50.784Z,17.20
2023-01-22T06:02:21.227Z,16.67
2023-01-22T06:04:50.128Z,15.63
2023-01-22T06:07:17.612Z,16.65
2023-01-22T06:09:45.096Z,15.95
2023-01-22T06:12:12.681Z,16.90
2023-01-22T06:14:40.185Z,16.23
2023-01-22T06:17:07.665Z,15.52
2023-01-22T06:19:35.159Z,17.20
2023-01-22T06:22:04.116Z,16.75
2023-01-22T06:24:31.645Z,17.40
2023-01-22T06:26:59.184Z,17.67
2023-01-22T06:29:26.771Z,16.90
2023-01-22T06:31:54.330Z,17.75
2023-01-22T06:34:21.921Z,17.85
2023-01-22T06:36:52.749Z,17.80
2023-01-22T06:39:21.825Z,18.73
2023-01-22T06:41:51.059Z,17.48
2023-01-22T06:44:19.344Z,18.05
2023-01-22T06:46:47.615Z,17.13
2023-01-22T06:49:15.494Z,17.70
2023-01-22T06:51:47.125Z,15.95
2023-01-22T06:54:15.141Z,16.13
2023-01-22T06:56:44.175Z,17.90
2023-01-22T06:59:14.143Z,16.02
2023-01-22T07:01:45.344Z,16.60
2023-01-22T07:04:13.066Z,18.23
2023-01-22T07:06:40.986Z,15.63
2023-01-22T07:09:09.569Z,14.77
2023-01-22T07:11:37.329Z,15.63
2023-01-22T07:14:13.926Z,14.90
2023-01-22T07:16:42.304Z,15.93
2023-01-22T07:19:09.869Z,17.02
2023-01-22T07:21:37.463Z,15.52
2023-01-22T07:24:07.554Z,17.33
2023-01-22T07:26:37.235Z,15.98
2023-01-22T07:29:14.286Z,16.02
2023-01-22T07:31:49.871Z,16.02
2023-01-22T07:34:22.706Z,16.10
2023-01-22T07:37:05.958Z,16.55
2023-01-22T07:39:55.294Z,15.55
2023-01-22T07:42:32.978Z,15.82
2023-01-22T07:45:12.439Z,17.85
2023-01-22T07:47:48.050Z,15.43
2023-01-22T07:50:20.929Z,16.30
2023-01-22T07:55:31.830Z,15.07
2023-01-22T07:58:02.840Z,14.57
2023-01-22T08:00:43.662Z,16.23
2023-01-22T08:03:19.002Z,17.92
2023-01-22T08:05:53.948Z,16.38
2023-01-22T08:08:24.488Z,17.23
2023-01-22T08:11:04.357Z,16.83
2023-01-22T08:13:35.813Z,16.90
2023-01-22T08:16:18.410Z,16.70
2023-01-22T08:18:56.266Z,16.92
2023-01-22T08:21:50.828Z,15.98
2023-01-22T08:24:22.673Z,18.15
2023-01-22T08:26:59.195Z,17.27
2023-01-22T08:29:40.930Z,18.02
2023-01-22T08:32:18.536Z,17.23
2023-01-22T08:34:57.209Z,17.83
2023-01-22T08:37:36.083Z,19.30
2023-01-22T08:40:09.007Z,16.58
2023-01-22T08:42:36.832Z,17.52
2023-01-22T08:45:04.919Z,16.60
2023-01-22T08:47:34.000Z,17.33
2023-01-22T08:50:02.854Z,16.75
2023-01-22T08:52:30.669Z,16.13
2023-01-22T08:54:58.284Z,16.95
2023-01-22T08:57:26.011Z,17.38
2023-01-22T09:00:01.074Z,17.55
2023-01-22T09:02:29.423Z,16.90
2023-01-22T09:04:58.377Z,17.00
2023-01-22T09:07:26.092Z,17.27
2023-01-22T09:09:53.592Z,18.13
2023-01-22T09:12:21.120Z,17.75
2023-01-22T09:14:48.685Z,16.48
2023-01-22T09:17:16.223Z,16.25
2023-01-22T09:19:43.854Z,16.85
2023-01-22T09:22:12.879Z,15.77
2023-01-22T09:24:40.471Z,16.08
2023-01-22T09:27:09.084Z,17.77
2023-01-22T09:29:36.625Z,17.33
2023-01-22T09:32:04.457Z,17.23
2023-01-22T09:34:33.305Z,17.20
2023-01-22T09:37:05.256Z,17.88
2023-01-22T09:39:34.118Z,17.88
2023-01-22T09:42:04.746Z,17.25
2023-01-22T09:44:38.634Z,16.85
2023-01-22T09:47:10.687Z,18.27
2023-01-22T09:49:44.155Z,19.48
2023-01-22T09:52:12.561Z,18.25
2023-01-22T09:54:42.198Z,19.20
2023-01-22T09:57:26.472Z,17.88
2023-01-22T09:59:58.573Z,19.05
2023-01-22T10:02:31.253Z,18.33
2023-01-22T10:05:04.034Z,19.33
2023-01-22T10:07:35.011Z,15.50
2023-01-22T10:10:19.629Z,18.83
2023-01-22T10:12:50.819Z,18.25
2023-01-22T10:15:21.591Z,17.48
2023-01-22T10:17:49.294Z,17.27
2023-01-22T10:20:21.136Z,18.00
2023-01-22T10:22:49.225Z,18.05
2023-01-22T10:25:18.523Z,18.15
2023-01-22T10:27:47.660Z,16.50
2023-01-22T10:30:22.307Z,16.73
2023-01-22T10:32:59.814Z,17.00
2023-01-22T10:35:28.124Z,16.88
2023-01-22T10:37:57.915Z,16.70
2023-01-22T10:40:30.860Z,17.60
2023-01-22T10:43:03.687Z,17.02
2023-01-22T10:48:07.407Z,16.88
2023-01-22T10:50:34.922Z,18.15
2023-01-22T10:53:04.673Z,19.35
2023-01-22T10:55:40.774Z,17.63
2023-01-22T10:58:17.285Z,15.43
2023-01-22T11:00:52.261Z,16.20
2023-01-22T11:03:22.915Z,17.23
2023-01-22T11:05:56.216Z,15.23
2023-01-22T11:08:29.266Z,13.55
2023-01-22T11:11:03.432Z,12.98
2023-01-22T11:13:39.705Z,13.73
2023-01-22T11:16:16.197Z,13.52
2023-01-22T11:18:47.611Z,13.85
2023-01-22T11:21:17.772Z,14.55
2023-01-22T11:23:50.316Z,13.80
2023-01-22T11:26:28.653Z,15.20
2023-01-22T11:29:04.738Z,13.15
2023-01-22T11:31:54.357Z,12.55
2023-01-22T11:34:39.263Z,13.60
2023-01-22T11:37:13.713Z,12.52
2023-01-22T11:39:55.195Z,13.27
2023-01-22T11:42:37.086Z,12.95
2023-01-22T11:45:17.107Z,11.77
2023-01-22T11:47:56.243Z,12.20
2023-01-22T11:50:29.012Z,11.02
2023-01-22T11:55:50.175Z,11.52
2023-01-22T11:58:28.805Z,11.13
2023-01-22T12:01:16.105Z,12.15
2023-01-22T12:04:00.332Z,10.50
2023-01-22T12:06:45.319Z,11.00
2023-01-22T12:09:22.879Z,11.38
2023-01-22T12:12:04.315Z,10.80
2023-01-22T12:14:42.617Z,10.50
2023-01-22T12:17:23.896Z,9.73
2023-01-22T12:20:17.961Z,9.35
2023-01-22T12:22:52.984Z,8.90
2023-01-22T12:25:27.501Z,9.82
2023-01-22T12:28:00.620Z,9.35
2023-01-22T12:30:38.789Z,9.52
2023-01-22T12:33:10.235Z,9.15
2023-01-22T12:35:38.158Z,9.07
2023-01-22T12:38:14.931Z,9.63
2023-01-22T12:40:57.471Z,9.35
2023-01-22T12:43:35.012Z,7.43
2023-01-22T12:46:12.710Z,12.30
2023-01-22T12:48:49.093Z,10.68
2023-01-22T12:51:28.880Z,10.90
2023-01-22T12:53:56.431Z,9.38
2023-01-22T12:56:33.860Z,11.30
2023-01-22T12:59:01.395Z,10.50
2023-01-22T13:01:37.164Z,12.05
2023-01-22T13:04:07.693Z,9.57
2023-01-22T13:06:37.773Z,9.93
2023-01-22T13:09:07.464Z,10.60
2023-01-22T13:11:36.540Z,11.13
2023-01-22T13:14:20.154Z,11.15
2023-01-22T13:16:55.603Z,9.77
2023-01-22T13:19:25.066Z,9.68
2023-01-22T13:21:53.618Z,9.75
2023-01-22T13:24:22.493Z,10.23
2023-01-22T13:26:53.803Z,9.68
2023-01-22T13:29:27.023Z,9.75
2023-01-22T13:31:59.429Z,9.27
2023-01-22T13:34:28.675Z,8.48
2023-01-22T13:36:56.771Z,9.63
2023-01-22T13:39:26.987Z,9.38
2023-01-22T13:41:57.262Z,8.95
2023-01-22T13:44:27.723Z,9.75
2023-01-22T13:46:56.767Z,9.77
2023-01-22T13:49:25.834Z,9.57
2023-01-22T13:51:54.089Z,9.77
2023-01-22T13:54:28.399Z,9.85
2023-01-22T13:56:56.003Z,9.35
2023-01-22T13:59:27.362Z,10.18
2023-01-22T14:01:56.351Z,10.02
2023-01-22T14:04:35.489Z,9.50
2023-01-22T14:07:03.075Z,9.55
2023-01-22T14:09:32.886Z,9.55
2023-01-22T14:12:01.837Z,9.32
2023-01-22T14:14:40.122Z,8.95
2023-01-22T14:17:08.992Z,9.93
2023-01-22T14:19:37.403Z,9.90
2023-01-22T14:22:04.881Z,9.52
2023-01-22T14:24:32.349Z,9.95
2023-01-22T14:26:59.845Z,9.43
2023-01-22T14:29:27.916Z,9.00
2023-01-22T14:31:55.454Z,9.13
2023-01-22T14:34:24.265Z,8.82
2023-01-22T14:36:51.770Z,9.50
2023-01-22T14:39:19.284Z,9.23
2023-01-22T14:41:49.404Z,9.82
2023-01-22T14:44:16.912Z,9.77
2023-01-22T14:46:44.386Z,9.80
2023-01-22T14:49:11.872Z,10.02
2023-01-22T14:51:41.145Z,10.73
2023-01-22T14:54:08.616Z,10.13
2023-01-22T14:56:36.135Z,10.05
2023-01-22T14:59:04.541Z,8.93
2023-01-22T15:01:32.035Z,10.07
2023-01-22T15:03:59.562Z,10.18
2023-01-22T15:06:27.102Z,10.13
2023-01-22T15:08:55.917Z,8.93
2023-01-22T15:11:23.457Z,9.65
2023-01-22T15:13:52.715Z,10.18
2023-01-22T15:16:20.678Z,9.52
2023-01-22T15:18:48.180Z,9.50
2023-01-22T15:21:15.730Z,8.95
2023-01-22T15:23:43.237Z,8.90
2023-01-22T15:26:25.018Z,8.75
2023-01-22T15:28:52.508Z,9.25
2023-01-22T15:31:20.036Z,9.63
2023-01-22T15:33:47.609Z,8.20
2023-01-22T15:36:15.150Z,8.57
2023-01-22T15:38:42.676Z,8.63
2023-01-22T15:41:20.187Z,9.43
2023-01-22T15:43:51.547Z,9.65
2023-01-22T15:46:20.179Z,8.75
2023-01-22T15:48:48.061Z,8.57
2023-01-22T15:51:15.863Z,9.82
2023-01-22T15:53:48.436Z,9.60
2023-01-22T15:56:15.889Z,8.95
2023-01-22T15:58:43.348Z,8.93
2023-01-22T16:01:12.295Z,9.13
2023-01-22T16:03:39.781Z,8.90
2023-01-22T16:06:11.839Z,9.43
2023-01-22T16:08:39.593Z,8.20
2023-01-22T16:11:08.058Z,9.00
2023-01-22T16:13:35.666Z,9.50
2023-01-22T16:16:06.235Z,8.68
2023-01-22T16:18:36.328Z,10.30
2023-01-22T16:21:04.815Z,9.93
2023-01-22T16:23:33.522Z,10.23
2023-01-22T16:26:01.867Z,10.18
2023-01-22T16:28:29.390Z,10.30
2023-01-22T16:30:56.968Z,10.85
2023-01-22T16:33:28.998Z,11.00
2023-01-22T16:36:01.818Z,10.25
2023-01-22T16:41:08.510Z,9.88
2023-01-22T16:43:36.088Z,11.52
2023-01-22T16:46:04.458Z,9.60
2023-01-22T16:48:31.941Z,9.35
2023-01-22T16:51:00.771Z,9.88
2023-01-22T16:53:28.329Z,11.15
2023-01-22T16:55:55.828Z,10.32
2023-01-22T16:58:23.327Z,10.48
2023-01-22T17:00:52.277Z,10.48
2023-01-22T17:03:19.753Z,11.27
2023-01-22T17:05:49.087Z,11.77
2023-01-22T17:08:17.887Z,11.85
2023-01-22T17:10:45.472Z,12.27
2023-01-22T17:13:13.090Z,10.82
2023-01-22T17:15:42.101Z,12.55
2023-01-22T17:18:09.630Z,11.50
2023-01-22T17:20:37.714Z,12.45
2023-01-22T17:23:05.211Z,13.05
2023-01-22T17:25:34.015Z,13.82
2023-01-22T17:28:01.480Z,12.82
2023-01-22T17:30:29.000Z,13.18
2023-01-22T17:32:56.504Z,12.15
2023-01-22T17:35:23.974Z,12.25
2023-01-22T17:37:51.481Z,12.70
2023-01-22T17:40:19.362Z,12.80
2023-01-22T17:42:48.173Z,11.90
2023-01-22T17:45:15.833Z,10.60
2023-01-22T17:47:44.207Z,12.57
2023-01-22T17:50:13.173Z,12.05
2023-01-22T17:52:41.180Z,11.48
2023-01-22T17:55:09.402Z,13.05
2023-01-22T17:57:36.877Z,12.02
2023-01-22T18:00:09.456Z,13.70
2023-01-22T18:02:36.955Z,12.30
2023-01-22T18:05:05.554Z,13.15
2023-01-22T18:07:33.040Z,12.10
2023-01-22T18:10:00.537Z,10.63
2023-01-22T18:12:28.044Z,13.48
2023-01-22T18:14:55.520Z,12.25
2023-01-22T18:17:25.071Z,11.35
2023-01-22T18:19:52.626Z,12.18
2023-01-22T18:22:20.521Z,12.60
2023-01-22T18:24:47.953Z,13.07
2023-01-22T18:27:16.485Z,13.00
2023-01-22T18:29:44.002Z,12.35
2023-01-22T18:32:11.473Z,11.52
2023-01-22T18:34:40.272Z,11.95
2023-01-22T18:37:07.793Z,13.85
2023-01-22T18:39:35.603Z,14.27
2023-01-22T18:42:03.165Z,14.65
2023-01-22T18:44:30.661Z,13.50
2023-01-22T18:46:59.979Z,28.58
2023-01-22T18:49:28.911Z,16.02
2023-01-22T18:52:00.844Z,16.98
2023-01-22T18:54:29.114Z,16.92
2023-01-22T18:56:57.143Z,17.30
2023-01-22T18:59:24.672Z,16.42
2023-01-22T19:01:52.449Z,17.40
2023-01-22T19:04:21.948Z,17.65
2023-01-22T19:06:54.659Z,16.20
2023-01-22T19:09:29.421Z,16.17
2023-01-22T19:11:58.770Z,14.68
2023-01-22T19:14:30.632Z,15.85
2023-01-22T19:17:03.375Z,16.33
2023-01-22T19:19:34.985Z,15.20
2023-01-22T19:22:04.429Z,15.35
2023-01-22T19:25:39.966Z,14.38
2023-01-22T19:30:55.528Z,13.95
2023-01-22T19:33:33.463Z,13.57
2023-01-22T19:36:02.259Z,14.88
2023-01-22T19:38:30.859Z,13.18
2023-01-22T19:40:59.048Z,18.23
2023-01-22T19:43:27.075Z,15.43
2023-01-22T19:45:56.576Z,20.27
2023-01-22T19:48:27.366Z,14.35
2023-01-22T19:51:04.207Z,14.43
2023-01-22T19:53:36.004Z,13.43
2023-01-22T19:56:15.461Z,12.77
2023-01-22T19:58:43.064Z,12.73
2023-01-22T20:01:13.552Z,13.13
2023-01-22T20:03:44.782Z,12.90
2023-01-22T20:06:22.047Z,14.32
2023-01-22T20:08:52.735Z,12.80
2023-01-22T20:11:20.846Z,13.90
2023-01-22T20:13:49.395Z,12.40
2023-01-22T20:16:24.960Z,13.73
2023-01-22T20:18:55.710Z,14.45
2023-01-22T20:21:27.890Z,14.13
2023-01-22T20:24:05.426Z,14.73
2023-01-22T20:26:38.999Z,14.75
2023-01-22T20:29:13.558Z,13.50
2023-01-22T20:31:46.943Z,13.70
2023-01-22T20:34:18.628Z,15.32
2023-01-22T20:36:48.157Z,14.40
2023-01-22T20:39:30.628Z,13.57
2023-01-22T20:42:05.402Z,14.23
2023-01-22T20:44:40.617Z,12.90
2023-01-22T20:47:14.736Z,14.00
2023-01-22T20:49:46.479Z,14.70
2023-01-22T20:52:33.460Z,14.70
2023-01-22T20:55:13.675Z,12.95
2023-01-22T20:57:46.055Z,12.77
2023-01-22T21:00:19.605Z,14.05
2023-01-22T21:02:58.773Z,12.30
2023-01-22T21:05:32.390Z,13.90
2023-01-22T21:08:09.631Z,12.63
2023-01-22T21:10:44.481Z,13.05
2023-01-22T21:13:16.743Z,12.07
2023-01-22T21:15:49.252Z,13.55
2023-01-22T21:18:28.133Z,13.75
2023-01-22T21:21:07.216Z,13.10
2023-01-22T21:23:42.241Z,13.05
2023-01-22T21:26:16.189Z,13.93
2023-01-22T21:28:52.404Z,14.93
2023-01-22T21:31:25.162Z,13.45
2023-01-22T21:36:43.808Z,11.85
2023-01-22T21:39:21.464Z,11.88
2023-01-22T21:42:13.129Z,11.90
2023-01-22T21:45:05.275Z,11.77
2023-01-22T21:47:36.011Z,13.93
2023-01-22T21:50:18.242Z,12.00
2023-01-22T21:52:54.463Z,12.57
2023-01-22T21:55:24.929Z,14.18
2023-01-22T21:57:56.869Z,13.07
2023-01-22T22:00:28.540Z,12.98
2023-01-22T22:03:01.169Z,13.07
2023-01-22T22:05:31.870Z,12.57
2023-01-22T22:08:03.335Z,13.30
2023-01-22T22:10:35.534Z,13.98
2023-01-22T22:13:05.418Z,13.05
2023-01-22T22:15:41.870Z,13.55
2023-01-22T22:18:20.081Z,12.50
2023-01-22T22:21:00.018Z,12.88
2023-01-22T22:23:36.314Z,12.98
2023-01-22T22:26:11.940Z,13.02
2023-01-22T22:28:45.386Z,13.00
2023-01-22T22:31:24.068Z,13.63
2023-01-22T22:33:59.286Z,12.95
2023-01-22T22:36:36.959Z,13.30
2023-01-22T22:39:09.620Z,13.32
2023-01-22T22:41:39.413Z,12.90
2023-01-22T22:44:21.927Z,13.90
2023-01-22T22:46:55.450Z,13.63
2023-01-22T22:49:26.595Z,12.15
2023-01-22T22:52:03.433Z,13.05
2023-01-22T22:54:37.594Z,12.40
2023-01-22T22:57:14.491Z,12.90
2023-01-22T22:59:44.291Z,12.15
2023-01-22T23:02:17.215Z,12.18
2023-01-22T23:04:49.668Z,11.48
2023-01-22T23:07:23.628Z,11.85
2023-01-22T23:09:59.591Z,11.57
2023-01-22T23:12:30.259Z,13.02
2023-01-22T23:18:02.168Z,11.45
2023-01-22T23:20:37.033Z,12.65
2023-01-22T23:23:14.802Z,12.82
2023-01-22T23:25:50.087Z,12.25
2023-01-22T23:28:28.946Z,11.93
2023-01-22T23:31:09.440Z,11.73
2023-01-22T23:33:44.774Z,12.77
2023-01-22T23:36:23.037Z,13.00
2023-01-22T23:38:57.122Z,11.43
2023-01-22T23:41:29.773Z,13.30
2023-01-22T23:44:07.303Z,10.95
2023-01-22T23:46:44.591Z,12.23
2023-01-22T23:49:17.009Z,11.13
2023-01-22T23:51:51.176Z,12.38
2023-01-22T23:54:26.249Z,11.57
2023-01-22T23:56:59.232Z,11.38
2023-01-22T23:59:34.242Z,11.30
